Latest Coastal Weather Observations for Orbost

IDV60701

Issued at 11:25 pm EDT Sunday 23 November 2014 (issued every 10 minutes, with the page automatically refreshed every 10 minutes)

About coastal observations | Map of coastal stations | Coastal observations for VIC | Marine services | Other Formats
Station Details ID: 084145 Name: ORBOST Lat: -37.69 Lon: 148.47 Height: 62.65 m
Data from the previous 72 hours. | See also: Recent months at Orbost
Date/Time
EDT
Temp

°C
Wind Pressure Rain
since 9am
mm
Weather Cloud Vis
km
Sea
Height
m
Swell
Dir
 
Speed
knots
Gust
knots
hPa Trend Height
m
Period
s
Dir
23/11:00pm 14.4 NE 2 2 1015.2 - 0.0 - - - - - - -
23/10:30pm 14.8 CALM 0 0 1015.8 - 0.0 - - - - - - -
23/10:00pm 14.7 N 2 2 1016.2 - 0.0 - - - - - - -
23/09:30pm 15.1 E 1 2 1015.7 - 0.0 - - - - - - -
23/09:00pm 15.6 CALM 0 0 1015.7 - 0.0 - - - - - - -
23/08:30pm 16.0 CALM 0 0 1015.3 - 0.0 - - - - - - -
23/08:00pm 16.3 SSE 1 3 1015.1 - 0.0 - - - - - - -
23/07:30pm 16.6 S 2 4 1014.4 - 0.0 - - - - - - -
23/07:00pm 17.0 S 4 7 1013.7 - 0.0 - - - - - - -
23/06:30pm 17.4 S 4 6 1013.3 - 0.0 - - - - - - -
23/06:00pm 17.7 S 4 7 1012.8 - 0.0 - - - - - - -
23/05:30pm 18.3 SSE 5 9 1012.4 - 0.0 - - - - - - -
23/05:00pm 18.4 S 7 12 1012.1 - 0.0 - - - - - - -
23/04:30pm 19.2 S 7 11 1012.0 - 0.0 - - - - - - -
23/04:00pm 19.8 S 7 10 1011.6 - 0.0 - - - - - - -
23/03:30pm 19.8 SSE 7 12 1011.3 - 0.0 - - - - - - -
23/03:00pm 20.2 SSE 6 11 1011.8 - 0.0 - - - - - - -
23/02:30pm 20.4 SSE 6 10 1011.9 - 0.0 - - - - - - -
23/02:00pm 19.7 SSE 6 11 1012.0 - 0.0 - - - - - - -
23/01:30pm 19.7 SSE 7 13 1012.0 - 0.0 - - - - - - -
23/01:00pm 19.4 SSE 6 10 1012.1 - 0.0 - - - - - - -
23/12:30pm 20.2 SSE 6 11 1012.2 - 0.0 - - - - - - -
23/12:00pm 20.7 S 5 8 1012.5 - 0.0 - - - - - - -
23/11:30am 20.1 S 5 8 1012.7 - 0.0 - - - - - - -
23/11:00am 20.4 SSE 5 8 1012.9 - 0.0 - - - - - - -
23/10:30am 20.8 SSE 4 8 1013.0 - 0.0 - - - - - - -
23/10:00am 20.5 SSE 3 7 1012.9 - 0.0 - - - - - - -
23/09:30am 20.0 SSE 2 5 1013.0 - 0.0 - - - - - - -
23/09:00am 19.6 S 2 4 1012.7 - 0.4 - - - - - - -
23/08:30am 19.1 SSW 5 6 1013.0 - 0.4 - - - - - - -
23/08:00am 19.0 WSW 4 6 1012.3 - 0.4 - - - - - - -
23/07:30am 19.4 W 3 4 1011.8 - 0.4 - - - - - - -
23/07:00am 19.7 WNW 2 4 1011.5 - 0.4 - - - - - - -
23/06:30am 19.3 W 3 5 1011.0 - 0.4 - - - - - - -
23/06:00am 18.6 NW 3 5 1010.6 - 0.4 - - - - - - -
23/05:30am 18.5 N 2 3 1009.8 - 0.4 - - - - - - -
23/05:00am 19.4 SSW 4 6 1008.9 - 0.4 - - - - - - -
23/04:30am 19.7 WSW 6 8 1008.9 - 0.4 - - - - - - -
23/04:00am 21.2 W 3 9 1009.0 - 0.4 - - - - - - -
23/03:30am 21.3 W 4 7 1008.6 - 0.4 - - - - - - -
23/03:00am 21.0 WNW 7 10 1008.3 - 0.2 Rain - - - - - -
23/02:30am 22.9 N 5 7 1007.4 - 0.0 - - - - - - -
23/02:00am 23.7 NW 4 7 1007.8 - 0.0 - - - - - - -
23/01:30am 23.4 N 6 9 1007.1 - 0.0 - - - - - - -
23/01:00am 22.0 N 5 6 1007.2 - 0.0 - - - - - - -
23/12:30am 20.6 NNE 2 3 1007.1 - 0.0 - - - - - - -
23/12:00am 19.7 NW 0 0 1007.5 - 0.0 - - - - - - -
 
Date/Time
EDT
Temp

°C
Wind Pressure Rain
since 9am
mm
Weather Cloud Vis
km
Sea
Height
m
Swell
Dir
 
Speed
knots
Gust
knots
hPa Trend Height
m
Period
s
Dir
22/11:30pm 19.0 CALM 0 2 1007.4 - 0.0 - - - - - - -
22/11:00pm 19.4 CALM 0 3 1007.4 - 0.0 - - - - - - -
22/10:30pm 20.9 CALM 0 0 1007.5 - 0.0 - - - - - - -
22/10:00pm 21.6 CALM 0 4 1007.4 - 0.0 - - - - - - -
22/09:30pm 21.9 NE 4 7 1007.2 - 0.0 - - - - - - -
22/09:00pm 20.6 NNE 2 3 1007.7 - 0.0 - - - - - - -
22/08:30pm 21.0 N 1 2 1007.6 - 0.0 - - - - - - -
22/08:00pm 20.9 CALM 0 0 1007.5 - 0.0 - - - - - - -
22/07:30pm 22.3 CALM 0 3 1007.5 - 0.0 - - - - - - -
22/07:00pm 23.6 ESE 1 3 1007.7 - 0.0 - - - - - - -
22/06:30pm 24.6 E 1 2 1007.5 - 0.0 - - - - - - -
22/06:00pm 24.6 E 2 4 1007.5 - 0.0 - - - - - - -
22/05:30pm 25.1 SE 1 2 1007.9 - 0.0 - - - - - - -
22/05:00pm 25.5 CALM 0 0 1008.0 - 0.0 - - - - - - -
22/04:30pm 25.3 ENE 4 7 1007.9 - 0.0 - - - - - - -
22/04:00pm 24.4 E 4 8 1008.0 - 0.0 - - - - - - -
22/03:30pm 24.4 ESE 1 3 1009.2 - 0.0 - - - - - - -
22/03:00pm 24.3 ESE 1 3 1010.2 - 0.0 - - - - - - -
22/02:30pm 24.1 ESE 3 5 1010.0 - 0.0 - - - - - - -
22/02:00pm 24.2 SE 4 6 1010.4 - 0.0 - - - - - - -
22/01:30pm 24.6 SSE 5 7 1010.4 - 0.0 - - - - - - -
22/01:00pm 25.3 SE 4 6 1010.5 - 0.0 - - - - - - -
22/12:30pm 25.9 S 4 6 1010.6 - 0.0 - - - - - - -
22/12:00pm 25.6 S 3 6 1010.8 - 0.0 - - - - - - -
22/11:30am 24.8 SSE 1 4 1010.8 - 0.0 - - - - - - -
22/11:00am 23.3 S 3 5 1010.7 - 0.0 - - - - - - -
22/10:30am 22.1 S 3 5 1010.8 - 0.0 - - - - - - -
22/10:00am 21.6 S 3 4 1011.3 - 0.0 - - - - - - -
22/09:30am 20.5 S 2 5 1011.4 - 0.0 - - - - - - -
22/09:00am 19.4 CALM 0 0 1011.8 - 0.0 - - - - - - -
22/08:30am 16.5 SSW 1 2 1012.1 - 0.0 - - - - - - -
22/08:00am 14.3 CALM 0 0 1012.1 - 0.0 - - - - - - -
22/07:30am 12.4 CALM 0 0 1012.1 - 0.0 - - - - - - -
22/07:00am 11.6 CALM 0 0 1011.9 - 0.0 - - - - - - -
22/06:30am 10.8 CALM 0 1 1011.8 - 0.0 - - - - - - -
22/06:00am 10.4 CALM 0 0 1011.8 - 0.0 - - - - - - -
22/05:30am 9.5 CALM 0 0 1011.6 - 0.0 - - - - - - -
22/05:00am 9.8 CALM 0 0 1011.8 - 0.0 - - - - - - -
22/04:30am 9.9 CALM 0 0 1011.7 - 0.0 - - - - - - -
22/04:00am 10.2 CALM 0 0 1012.0 - 0.0 - - - - - - -
22/03:30am 10.4 CALM 0 0 1012.4 - 0.0 - - - - - - -
22/03:00am 10.5 CALM 0 0 1012.6 - 0.0 - - - - - - -
22/02:30am 10.4 CALM 0 0 1013.1 - 0.0 - - - - - - -
22/02:00am 10.3 CALM 0 0 1013.5 - 0.0 - - - - - - -
22/01:30am 10.1 E 1 1 1013.8 - 0.0 - - - - - - -
22/01:00am 10.4 ESE 1 2 1014.2 - 0.0 - - - - - - -
22/12:30am 10.6 CALM 0 0 1014.5 - 0.0 - - - - - - -
22/12:00am 10.0 N 2 3 1014.6 - 0.0 - - - - - - -
 
Date/Time
EDT
Temp

°C
Wind Pressure Rain
since 9am
mm
Weather Cloud Vis
km
Sea
Height
m
Swell
Dir
 
Speed
knots
Gust
knots
hPa Trend Height
m
Period
s
Dir
21/11:30pm 11.3 CALM 0 0 1014.7 - 0.0 - - - - - - -
21/11:00pm 12.3 NE 3 4 1014.6 - 0.0 - - - - - - -
21/10:30pm 11.8 ENE 4 5 1014.7 - 0.0 - - - - - - -
21/10:00pm 12.1 NNE 3 3 1014.6 - 0.0 - - - - - - -
21/09:30pm 12.3 NE 3 4 1014.4 - 0.0 - - - - - - -
21/09:00pm 12.5 ENE 2 3 1014.4 - 0.0 - - - - - - -
21/08:30pm 12.9 ENE 1 2 1014.2 - 0.0 - - - - - - -
21/08:00pm 14.5 ESE 1 2 1013.7 - 0.0 - - - - - - -
21/07:30pm 15.6 S 3 5 1013.4 - 0.0 - - - - - - -
21/07:00pm 16.3 S 4 8 1012.9 - 0.0 - - - - - - -
21/06:30pm 17.0 S 5 8 1012.4 - 0.0 - - - - - - -
21/06:00pm 16.5 S 5 8 1012.0 - 0.0 - - - - - - -
21/05:30pm 18.1 SSW 7 10 1011.7 - 0.0 - - - - - - -
21/05:00pm 17.2 SW 7 10 1011.4 - 0.0 - - - - - - -
21/04:30pm 17.9 S 6 10 1011.1 - 0.0 - - - - - - -
21/04:00pm 17.5 SSW 6 10 1011.0 - 0.0 - - - - - - -
21/03:30pm 18.2 SW 5 9 1010.8 - 0.0 - - - - - - -
21/03:00pm 17.4 SW 5 8 1010.8 - 0.0 - - - - - - -
21/02:30pm 16.1 SW 6 11 1010.9 - 0.0 - - - - - - -
21/02:00pm 15.9 SW 7 12 1010.8 - 0.0 - - - - - - -
21/01:30pm 16.0 SW 10 14 1010.6 - 0.0 - - - - - - -
21/01:00pm 16.4 SSW 5 8 1010.2 - 0.0 - - - - - - -
21/12:30pm 16.4 SSW 9 13 1010.1 - 0.0 - - - - - - -
21/12:00pm 17.1 SSW 4 6 1009.9 - 0.0 - - - - - - -
21/11:30am 16.9 SW 5 10 1009.9 - 0.0 - - - - - - -
21/11:00am 16.7 SW 5 8 1009.6 - 0.0 - - - - - - -
21/10:30am 17.2 SSW 7 10 1009.0 - 0.0 - - - - - - -
21/10:00am 17.7 SSW 4 5 1008.6 - 0.0 - - - - - - -
21/09:30am 17.8 WSW 5 9 1008.5 - 0.0 - - - - - - -
21/09:00am 17.9 SW 7 11 1008.4 - 0.0 - - - - - - -
21/08:30am 18.9 SSW 7 11 1007.9 - 0.0 - - - - - - -
21/08:00am 20.6 W 3 9 1006.9 - 0.0 - - - - - - -
21/07:30am 20.4 NW 3 7 1006.0 - 0.0 - - - - - - -
21/07:00am 19.7 N 4 5 1005.8 - 0.0 - - - - - - -
21/06:30am 19.7 NW 4 5 1005.6 - 0.0 - - - - - - -
21/06:00am 17.9 N 3 4 1005.1 - 0.0 - - - - - - -
21/05:30am 16.0 NW 3 5 1004.5 - 0.0 - - - - - - -
21/05:00am 16.7 NNW 2 2 1003.4 - 0.0 - - - - - - -
21/04:30am 16.9 WNW 2 3 1003.1 - 0.0 - - - - - - -
21/04:00am 16.4 WSW 3 4 1002.9 - 0.0 - - - - - - -
21/03:30am 16.8 N 3 5 1002.8 - 0.0 - - - - - - -
21/03:00am 19.7 N 4 9 1003.2 - 0.0 - - - - - - -
21/02:30am 20.2 NE 7 12 1003.7 - 0.0 - - - - - - -
21/02:00am 18.3 E 4 7 1004.8 - 0.0 - - - - - - -
21/01:30am 18.0 CALM 0 2 1006.3 - 0.0 - - - - - - -
21/01:00am 18.4 NNE 1 2 1007.0 - 0.0 - - - - - - -
21/12:30am 18.3 ENE 3 4 1007.6 - 0.0 - - - - - - -
21/12:00am 18.4 ENE 3 6 1008.1 - 0.0 - - - - - - -
 
Date/Time
EDT
Temp

°C
Wind Pressure Rain
since 9am
mm
Weather Cloud Vis
km
Sea
Height
m
Swell
Dir
 
Speed
knots
Gust
knots
hPa Trend Height
m
Period
s
Dir
20/11:30pm 18.0 E 2 4 1008.5 - 0.0 - - - - - - -

Other Formats:

Comma delimited format used in spreadsheet applications
http://www.bom.gov.au/fwo/IDV60701/IDV60701.95918.axf

JavaScript Object Notation format (JSON) in row-major order
http://www.bom.gov.au/fwo/IDV60701/IDV60701.95918.json